Time;durP1;ratioP1;P1;durP2;ratioP2;P2;SDS_P1;SDS_P2;PMS_P1;PMS_P2;Temp;Humidity;BMP_temperature;BMP_pressure;BME280_temperature;BME280_humidity;BME280_pressure;Samples;Min_cycle;Max_cycle;Signal;HPM_P1;HPM_P2
2020/12/29 00:06:45;;;;;;;2.17;0.95;;;2.30;99.90;;;;;;21052198;28;20102;-87
2020/12/29 00:16:46;;;;;;;2.60;1.00;;;2.40;99.90;;;;;;21029322;28;20060;-88
2020/12/29 00:26:47;;;;;;;1.60;0.90;;;2.60;99.90;;;;;;21048329;28;20050;-87
2020/12/29 00:36:52;;;;;;;0.40;0.40;;;2.80;99.90;;;;;;21031669;28;20130;-87
2020/12/29 00:46:53;;;;;;;0.52;0.32;;;2.80;99.90;;;;;;21034806;28;20127;-89
2020/12/29 00:56:55;;;;;;;0.40;0.38;;;2.60;99.90;;;;;;21041803;28;20123;-88
2020/12/29 01:07:02;;;;;;;2.38;0.40;;;2.70;99.90;;;;;;20979642;28;20405;-88
2020/12/29 01:17:03;;;;;;;1.48;0.55;;;3.00;99.90;;;;;;20956909;28;20036;-86
2020/12/29 01:27:04;;;;;;;0.97;0.50;;;3.60;99.90;;;;;;20965744;28;20075;-88
2020/12/29 01:37:08;;;;;;;0.43;0.40;;;3.90;99.90;;;;;;21019204;28;20298;-88
2020/12/29 01:47:09;;;;;;;5.00;0.60;;;4.10;99.90;;;;;;21008382;28;20031;-87
2020/12/29 01:57:09;;;;;;;0.57;0.40;;;4.10;99.90;;;;;;20970349;28;20808;-87
2020/12/29 02:07:10;;;;;;;0.50;0.43;;;4.20;99.90;;;;;;20980507;28;20031;-87
2020/12/29 02:17:11;;;;;;;1.13;0.40;;;4.60;99.90;;;;;;21039093;28;20090;-84
2020/12/29 02:27:12;;;;;;;2.07;0.80;;;4.60;99.90;;;;;;21025459;28;20036;-89
2020/12/29 02:37:14;;;;;;;2.47;0.70;;;4.80;99.90;;;;;;21072794;28;20695;-89
2020/12/29 02:47:15;;;;;;;3.03;0.60;;;5.00;99.90;;;;;;21057180;28;20090;-87
2020/12/29 02:57:34;;;;;;;3.53;0.80;;;5.10;99.90;;;;;;21067088;28;20019;-84
2020/12/29 03:07:45;;;;;;;2.78;0.57;;;5.20;99.90;;;;;;21356385;22;20114;-79
2020/12/29 03:17:50;;;;;;;1.70;0.60;;;5.10;99.90;;;;;;20871784;28;20476;-78
2020/12/29 03:27:58;;;;;;;6.50;0.80;;;5.10;99.90;;;;;;20954791;28;20044;-80
2020/12/29 03:38:13;;;;;;;3.00;0.80;;;5.30;99.90;;;;;;20956735;28;20546;-80
2020/12/29 03:49:33;;;;;;;2.90;0.70;;;5.20;99.90;;;;;;20867777;28;20048;-80
2020/12/29 04:00:07;;;;;;;1.88;0.70;;;5.10;99.90;;;;;;20841347;28;20807;-79
2020/12/29 04:11:03;;;;;;;4.13;0.63;;;4.80;99.90;;;;;;20871372;28;20049;-80
2020/12/29 04:21:25;;;;;;;2.50;0.70;;;4.80;99.90;;;;;;20920183;28;20060;-79
2020/12/29 04:31:26;;;;;;;1.87;0.50;;;4.70;99.90;;;;;;20892185;28;20052;-76
2020/12/29 04:41:28;;;;;;;2.53;0.50;;;4.60;99.90;;;;;;20880464;28;20061;-77
2020/12/29 04:51:29;;;;;;;5.63;0.65;;;4.60;99.90;;;;;;20885346;28;20033;-77
2020/12/29 05:01:31;;;;;;;;;;;4.80;99.90;;;;;;20895248;28;20115;-80
2020/12/29 05:11:37;;;;;;;4.17;0.87;;;4.80;99.90;;;;;;20874509;28;19951;-78
2020/12/29 05:21:40;;;;;;;1.73;0.80;;;4.80;99.90;;;;;;20891810;28;20026;-78
2020/12/29 05:31:45;;;;;;;6.20;0.82;;;5.00;99.90;;;;;;20892515;28;20041;-79
2020/12/29 05:41:51;;;;;;;2.90;0.70;;;5.10;99.90;;;;;;20895036;28;20037;-78
2020/12/29 05:51:54;;;;;;;1.92;0.70;;;4.80;99.90;;;;;;20878588;28;20037;-80
2020/12/29 06:01:56;;;;;;;0.80;0.40;;;5.00;99.90;;;;;;20859868;28;20056;-79
2020/12/29 06:11:59;;;;;;;2.90;0.73;;;4.90;99.90;;;;;;20880187;28;20041;-78
2020/12/29 06:22:14;;;;;;;1.05;0.40;;;4.70;99.90;;;;;;20890093;28;20049;-78
2020/12/29 06:32:19;;;;;;;1.55;0.70;;;4.70;99.90;;;;;;20909276;28;20040;-79
2020/12/29 06:42:21;;;;;;;2.03;0.55;;;4.60;99.90;;;;;;20867277;28;20033;-81
2020/12/29 06:52:25;;;;;;;0.93;0.50;;;4.70;99.90;;;;;;20907046;28;20041;-77
2020/12/29 07:02:35;;;;;;;3.50;0.70;;;4.80;99.90;;;;;;20887255;28;20079;-79
2020/12/29 07:12:36;;;;;;;9.27;0.80;;;4.80;99.90;;;;;;20885557;28;20063;-77
2020/12/29 07:22:37;;;;;;;1.42;0.70;;;4.90;99.90;;;;;;20902354;28;20041;-77
2020/12/29 07:32:38;;;;;;;10.03;1.10;;;5.10;99.90;;;;;;20901680;28;20739;-77
2020/12/29 07:42:39;;;;;;;1.10;0.53;;;5.10;99.90;;;;;;20900814;28;20495;-77
2020/12/29 07:52:40;;;;;;;1.27;0.80;;;5.20;99.90;;;;;;20882920;28;20039;-76
2020/12/29 08:02:49;;;;;;;2.60;0.73;;;5.20;99.90;;;;;;20898286;28;20097;-76
2020/12/29 08:12:59;;;;;;;1.83;0.73;;;5.00;99.90;;;;;;20875854;28;20052;-76
2020/12/29 08:23:04;;;;;;;2.20;0.55;;;4.90;99.90;;;;;;20878930;28;20110;-78
2020/12/29 08:33:05;;;;;;;4.30;0.70;;;4.80;99.90;;;;;;20909872;28;20132;-77
2020/12/29 08:43:07;;;;;;;1.27;0.70;;;4.90;99.90;;;;;;20893864;28;20033;-78
2020/12/29 08:53:09;;;;;;;3.47;0.70;;;5.00;99.90;;;;;;20946403;28;20037;-79
2020/12/29 09:03:23;;;;;;;2.28;1.00;;;5.00;99.90;;;;;;20946878;28;20045;-78
2020/12/29 09:13:24;;;;;;;1.63;0.70;;;5.00;99.90;;;;;;20920065;28;20086;-79
2020/12/29 09:23:25;;;;;;;5.33;1.00;;;5.10;99.90;;;;;;20925205;28;20472;-79
2020/12/29 09:33:28;;;;;;;2.40;0.73;;;5.30;99.90;;;;;;20909787;28;20043;-78
2020/12/29 09:43:29;;;;;;;2.85;0.90;;;5.30;99.90;;;;;;20928560;28;20449;-79
2020/12/29 09:53:30;;;;;;;1.50;0.60;;;6.50;99.90;;;;;;20914337;28;20466;-78
2020/12/29 10:03:32;;;;;;;3.40;1.03;;;6.20;99.90;;;;;;20935379;28;20033;-78
2020/12/29 10:13:32;;;;;;;;;;;6.90;99.90;;;;;;20914702;28;20037;-78
2020/12/29 10:23:33;;;;;;;3.17;0.87;;;6.90;99.90;;;;;;20927120;28;19951;-78
2020/12/29 10:33:34;;;;;;;5.43;0.63;;;8.50;99.90;;;;;;20927686;28;20295;-80
2020/12/29 10:43:35;;;;;;;3.07;0.70;;;8.40;99.90;;;;;;20908709;28;20064;-79
2020/12/29 10:53:36;;;;;;;4.57;0.87;;;8.80;99.90;;;;;;20927258;28;20147;-80
2020/12/29 11:03:37;;;;;;;3.93;1.07;;;8.40;99.90;;;;;;20903988;28;20127;-78
2020/12/29 11:13:38;;;;;;;1.67;0.63;;;9.40;99.90;;;;;;20931898;28;20032;-78
2020/12/29 11:23:39;;;;;;;0.77;0.60;;;9.00;99.90;;;;;;20934679;28;20632;-79
2020/12/29 11:33:40;;;;;;;3.07;1.03;;;9.70;99.90;;;;;;20954443;28;20028;-79
2020/12/29 11:43:41;;;;;;;1.43;0.50;;;8.60;99.90;;;;;;20986108;28;20122;-79
2020/12/29 11:53:42;;;;;;;2.47;0.80;;;7.70;99.90;;;;;;21002970;28;20064;-79
2020/12/29 12:03:43;;;;;;;2.77;1.20;;;7.70;99.90;;;;;;20942858;28;20411;-78
2020/12/29 12:13:44;;;;;;;2.30;0.70;;;8.10;99.90;;;;;;20906182;28;20125;-78
2020/12/29 12:23:45;;;;;;;4.23;1.07;;;7.80;99.90;;;;;;20927121;28;20081;-80
2020/12/29 12:33:47;;;;;;;1.75;0.57;;;7.50;99.90;;;;;;20933752;28;20061;-78
2020/12/29 12:43:47;;;;;;;2.67;0.88;;;7.30;99.90;;;;;;20962623;28;20053;-78
2020/12/29 12:53:48;;;;;;;3.70;1.13;;;7.30;99.90;;;;;;20934508;28;20029;-79
2020/12/29 13:03:49;;;;;;;2.63;0.93;;;7.30;99.90;;;;;;20931223;28;20035;-80
2020/12/29 13:13:50;;;;;;;3.90;0.93;;;7.00;99.90;;;;;;20940198;28;20036;-79
2020/12/29 13:23:51;;;;;;;3.73;1.03;;;6.70;99.90;;;;;;20922838;28;20052;-78
2020/12/29 13:33:52;;;;;;;7.07;1.10;;;6.50;99.90;;;;;;20937351;28;20048;-78
2020/12/29 13:43:53;;;;;;;13.13;3.10;;;6.50;99.90;;;;;;20942489;28;20076;-79
2020/12/29 13:53:54;;;;;;;9.80;2.73;;;6.50;99.90;;;;;;20938779;28;20040;-79
2020/12/29 14:03:55;;;;;;;4.60;1.97;;;6.40;99.90;;;;;;20940307;28;20060;-78
2020/12/29 14:13:56;;;;;;;7.40;2.33;;;6.40;99.90;;;;;;20934154;28;20029;-77
2020/12/29 14:23:57;;;;;;;2.20;0.90;;;6.30;99.90;;;;;;20937278;28;20427;-77
2020/12/29 14:34:15;;;;;;;2.83;1.07;;;6.20;99.90;;;;;;20920670;28;20039;-79
2020/12/29 14:44:19;;;;;;;3.15;1.35;;;6.10;99.90;;;;;;20890496;28;20033;-79
2020/12/29 14:54:21;;;;;;;3.23;1.27;;;5.30;99.90;;;;;;20905144;28;20051;-79
2020/12/29 15:04:22;;;;;;;7.43;1.73;;;4.40;99.90;;;;;;20920904;28;20039;-78
2020/12/29 15:14:23;;;;;;;16.10;7.30;;;4.30;99.90;;;;;;20924568;28;20033;-78
2020/12/29 15:24:23;;;;;;;17.13;4.53;;;4.20;99.90;;;;;;20898828;28;20101;-77
2020/12/29 15:34:27;;;;;;;6.67;2.17;;;4.20;99.90;;;;;;20896034;28;20083;-78
2020/12/29 15:44:28;;;;;;;6.88;3.47;;;3.90;99.90;;;;;;20910881;28;20029;-79
2020/12/29 15:54:29;;;;;;;4.33;1.57;;;3.70;99.90;;;;;;20892606;28;20112;-78
2020/12/29 16:04:30;;;;;;;12.97;4.30;;;3.20;99.90;;;;;;20900473;28;20084;-77
2020/12/29 16:14:31;;;;;;;5.90;3.37;;;3.20;99.90;;;;;;20903296;28;20028;-76
2020/12/29 16:24:31;;;;;;;5.67;1.97;;;3.00;99.90;;;;;;20906495;28;20025;-76
2020/12/29 16:34:33;;;;;;;1.60;1.00;;;2.90;99.90;;;;;;20890602;28;20467;-76
2020/12/29 16:44:34;;;;;;;;;;;2.90;99.90;;;;;;20892851;28;20028;-76
2020/12/29 16:54:35;;;;;;;11.07;6.22;;;2.70;99.90;;;;;;20909006;28;19932;-77
2020/12/29 17:04:36;;;;;;;7.65;4.75;;;2.20;99.90;;;;;;20908897;28;20029;-78
2020/12/29 17:14:37;;;;;;;11.13;6.25;;;2.20;99.90;;;;;;20919697;28;20025;-78
2020/12/29 17:24:37;;;;;;;17.65;8.55;;;2.20;99.90;;;;;;20915274;28;20039;-77
2020/12/29 17:34:38;;;;;;;21.70;9.70;;;2.40;99.90;;;;;;20897294;28;20028;-77
2020/12/29 17:44:39;;;;;;;26.83;12.48;;;2.50;99.90;;;;;;20915950;28;20037;-77
2020/12/29 17:54:41;;;;;;;63.90;24.83;;;2.50;99.90;;;;;;20919340;28;20529;-77
2020/12/29 18:04:41;;;;;;;;;;;2.40;99.90;;;;;;20900393;28;20033;-78
2020/12/29 18:14:42;;;;;;;11.83;6.40;;;2.30;99.90;;;;;;20924223;28;19920;-77
2020/12/29 18:24:43;;;;;;;11.93;6.45;;;2.10;99.90;;;;;;20915242;28;20353;-77
2020/12/29 18:34:44;;;;;;;12.13;6.55;;;2.00;99.90;;;;;;20923957;28;20430;-78
2020/12/29 18:44:45;;;;;;;13.63;7.03;;;1.60;99.90;;;;;;20928326;28;20037;-79
2020/12/29 18:54:46;;;;;;;13.50;7.03;;;1.40;99.90;;;;;;20928082;28;20029;-79
2020/12/29 19:04:47;;;;;;;;;;;1.70;99.90;;;;;;20914979;28;20088;-79
2020/12/29 19:14:48;;;;;;;10.57;5.90;;;1.90;99.90;;;;;;20913737;28;19920;-81
2020/12/29 19:24:49;;;;;;;;;;;1.70;99.90;;;;;;20896714;28;20033;-81
2020/12/29 19:34:50;;;;;;;9.18;5.65;;;1.80;99.90;;;;;;20908803;28;19908;-78
2020/12/29 19:44:51;;;;;;;11.90;5.80;;;1.60;99.90;;;;;;20912491;28;20040;-81
2020/12/29 19:54:51;;;;;;;;;;;1.30;99.90;;;;;;20934839;28;20562;-80
2020/12/29 20:04:52;;;;;;;17.20;10.70;;;0.90;99.90;;;;;;20991348;28;19958;-81
2020/12/29 20:14:53;;;;;;;18.65;9.60;;;1.10;99.90;;;;;;20995726;28;20032;-81
2020/12/29 20:24:54;;;;;;;;;;;1.20;99.90;;;;;;20995184;28;20032;-81
2020/12/29 20:34:56;;;;;;;20.27;8.52;;;1.00;99.90;;;;;;20961294;28;19924;-81
2020/12/29 20:44:57;;;;;;;15.80;8.25;;;1.10;99.90;;;;;;20931348;28;20041;-80
2020/12/29 20:54:58;;;;;;;20.20;10.27;;;1.30;99.90;;;;;;20927075;28;20039;-81
2020/12/29 21:04:59;;;;;;;24.67;11.88;;;1.30;99.90;;;;;;20900810;28;20033;-81
2020/12/29 21:15:00;;;;;;;12.38;7.45;;;1.50;99.90;;;;;;20918454;28;20036;-78
2020/12/29 21:25:01;;;;;;;20.55;7.95;;;1.50;99.90;;;;;;20929866;28;20155;-79
2020/12/29 21:35:02;;;;;;;26.65;14.95;;;1.60;99.90;;;;;;20903968;28;20038;-82
2020/12/29 21:45:04;;;;;;;21.38;10.63;;;1.60;99.90;;;;;;20925513;28;20124;-79
2020/12/29 21:55:05;;;;;;;15.48;8.90;;;1.40;99.90;;;;;;20929216;28;20062;-76
2020/12/29 22:05:05;;;;;;;;;;;1.10;99.90;;;;;;20962342;28;20048;-80
2020/12/29 22:15:06;;;;;;;12.25;6.85;;;1.00;99.90;;;;;;20961903;28;20014;-77
2020/12/29 22:25:07;;;;;;;12.75;6.45;;;0.70;99.90;;;;;;20952504;28;20122;-79
2020/12/29 22:35:08;;;;;;;;;;;1.00;99.90;;;;;;20934711;28;20048;-79
2020/12/29 22:45:09;;;;;;;17.42;7.18;;;1.20;99.90;;;;;;20951461;28;19917;-79
2020/12/29 22:55:10;;;;;;;19.27;8.93;;;1.00;99.90;;;;;;20961897;28;20087;-82
2020/12/29 23:05:11;;;;;;;18.85;8.95;;;1.10;99.90;;;;;;20937462;28;20060;-79
2020/12/29 23:15:11;;;;;;;;;;;1.20;99.90;;;;;;20941169;28;20029;-81
2020/12/29 23:25:12;;;;;;;20.52;9.82;;;1.30;99.90;;;;;;20942677;28;19920;-77
2020/12/29 23:35:13;;;;;;;17.13;9.30;;;1.00;99.90;;;;;;20941571;28;20033;-81
2020/12/29 23:45:14;;;;;;;22.85;10.45;;;1.00;99.90;;;;;;20933110;28;20119;-81
2020/12/29 23:55:15;;;;;;;17.60;9.65;;;1.20;99.90;;;;;;20923333;28;20090;-83
